• Join FlightAware (Why Join?)
  • Login
  • US Flag 
04:54PM EDT


 

Airport Tracker/Info


-or-


 

Live Flight TrackerFlight Track Log ✈ UAL1427 ✈ 14-May-2013 ✈ KIAH - KEWR

Flight Track Log - Related Links

Times and Time Zones

All times are in EDT time to prevent confusion due to time zone crossing. See the UAL1427 flight status page for this flight to view local times or setup timezone preferences in your user account.

Time Position Orientation Groundspeed Altitude Reporting Facility
EDT Latitude Longitude Course Direction KTS MPH feet Rate Location/Type
04:15PM 29.9655 -95.3018 88° East 173 199 500  Level FlightAware ADS-B
04:15PM 29.9659 -95.2985 82° East 170 196 700 4,260 Climbing FlightAware ADS-B
04:15PM 29.9666 -95.2951 77° East 170 196 1,000 3,720 Climbing FlightAware ADS-B
04:15PM 29.9678 -95.2917 68° East 173 199 1,200 2,220 Climbing FlightAware ADS-B
04:16PM 29.9695 -95.2882 61° Northeast 180 207 1,300 2,220 Climbing FlightAware ADS-B
04:16PM 29.9717 -95.2855 47° Northeast 185 213 1,500 1,980 Climbing FlightAware ADS-B
04:16PM 29.9746 -95.2824 43° Northeast 190 219 1,600 1,320 Climbing FlightAware ADS-B
04:16PM 29.9778 -95.2802 31° Northeast 198 228 1,700 1,680 Climbing FlightAware ADS-B
04:16PM 29.9806 -95.2783 30° Northeast 204 235 1,800 2,160 Climbing FlightAware ADS-B
04:16PM 29.9930 -95.2710 27° Northeast 2,300 2,220 Climbing FlightAware ADS-B
04:16PM 29.9942 -95.2711 356° North 222 255 2,400 1,860 Climbing FlightAware ADS-B
04:16PM 30.0097 -95.2633 24° Northeast 246 283 2,800 1,500 Climbing FlightAware ADS-B
04:16PM 30.0100 -95.2630 41° Northeast 276 318 2,800 1,980 Level FlightAware ADS-B
04:17PM 30.0263 -95.2546 24° Northeast 266 306 3,300 1,860 Climbing FlightAware ADS-B
04:17PM 30.0300 -95.2520 31° Northeast 244 281 3,400 1,560 Climbing FlightAware ADS-B
04:17PM 30.0437 -95.2455 22° Northeast 276 318 3,700 960 Climbing FlightAware ADS-B
04:17PM 30.0500 -95.2420 26° Northeast 244 281 3,700 540 Level FlightAware ADS-B
04:17PM 30.0560 -95.2388 25° Northeast 280 322 3,800 360 Climbing FlightAware ADS-B
04:17PM 30.0694 -95.2304 28° Northeast 281 323 3,800  Level FlightAware ADS-B
04:17PM 30.0730 -95.2290 19° North 336 387 3,800  Level FlightAware ADS-B
04:17PM 30.0876 -95.2183 32° Northeast 277 319 3,800  Level FlightAware ADS-B
04:18PM 30.0930 -95.2150 28° Northeast 274 315 3,800  Level FlightAware ADS-B
04:18PM 30.1073 -95.2048 32° Northeast 276 318 3,800  Level FlightAware ADS-B
04:18PM 30.1120 -95.2010 35° Northeast 274 315 3,800  Level FlightAware ADS-B
04:18PM 30.1241 -95.1928 30° Northeast 275 316 3,800  Level FlightAware ADS-B
04:18PM 30.1320 -95.1880 28° Northeast 274 315 3,800  Level FlightAware ADS-B
04:18PM 30.1430 -95.1792 35° Northeast 276 318 3,800  Level FlightAware ADS-B
04:18PM 30.1510 -95.1730 34° Northeast 260 299 3,800  Level FlightAware ADS-B
04:19PM 30.1582 -95.1684 29° Northeast 274 315 3,800 660 Level FlightAware ADS-B
04:19PM 30.1710 -95.1589 33° Northeast 282 325 4,000 2,760 Climbing FlightAware ADS-B
04:19PM 30.1911 -95.1447 31° Northeast 284 327 5,200 3,660 Climbing FlightAware ADS-B
04:19PM 30.2083 -95.1323 32° Northeast 288 331 6,100 3,840 Climbing FlightAware ADS-B
04:19PM 30.2110 -95.1300 36° Northeast 284 327 6,300 3,720 Climbing FlightAware ADS-B
04:20PM 30.2272 -95.1186 31° Northeast 292 336 7,100 3,120 Climbing FlightAware ADS-B
04:20PM 30.2320 -95.1150 33° Northeast 319 367 7,300 3,360 Climbing FlightAware ADS-B
04:20PM 30.2454 -95.1054 32° Northeast 295 339 8,000 3,660 Climbing FlightAware ADS-B
04:20PM 30.2530 -95.1000 32° Northeast 318 366 8,400 3,840 Climbing FlightAware ADS-B
04:20PM 30.2656 -95.0908 32° Northeast 296 341 9,100 3,840 Climbing FlightAware ADS-B
04:20PM 30.2730 -95.0850 34° Northeast 284 327 9,500 3,060 Climbing FlightAware ADS-B
04:21PM 30.3015 -95.0652 31° Northeast 304 350 10,700 2,700 Climbing FlightAware ADS-B
04:21PM 30.3090 -95.0600 31° Northeast 295 339 10,900 1,800 Climbing FlightAware ADS-B
04:21PM 30.3401 -95.0378 32° Northeast 341 392 11,600 1,620 Climbing FlightAware ADS-B
04:21PM 30.3480 -95.0320 32° Northeast 335 386 11,700 1,140 Climbing FlightAware ADS-B
04:22PM 30.3834 -95.0067 32° Northeast 380 437 12,200 1,440 Climbing FlightAware ADS-B
04:22PM 30.4010 -94.9940 32° Northeast 382 440 12,600 2,160 Climbing FlightAware ADS-B
04:22PM 30.4292 -94.9724 33° Northeast 402 463 13,300 2,220 Climbing FlightAware ADS-B
04:22PM 30.4570 -94.9510 34° Northeast 426 490 13,900 1,980 Climbing FlightAware ADS-B
04:23PM 30.4771 -94.9346 35° Northeast 424 488 14,300 2,400 Climbing FlightAware ADS-B
04:23PM 30.5160 -94.9040 34° Northeast 461 531 15,400 2,460 Climbing FlightAware ADS-B
04:23PM 30.5276 -94.8953 33° Northeast 436 502 15,600 2,460 Climbing FlightAware ADS-B
04:24PM 30.5770 -94.8570 34° Northeast 501 577 16,900 2,880 Climbing FlightAware ADS-B
04:24PM 30.5815 -94.8536 33° Northeast 443 510 17,100 3,180 Climbing FlightAware ADS-B
04:24PM 30.6270 -94.8190 33° Northeast 560 644 18,500 2,880 Climbing FlightAware ADS-B
04:24PM 30.6337 -94.8132 37° Northeast 443 510 18,600 2,160 Climbing FlightAware ADS-B
04:25PM 30.6860 -94.7727 34° Northeast 456 525 19,700 2,160 Climbing FlightAware ADS-B
04:25PM 30.6890 -94.7710 26° Northeast 427 491 19,800 2,160 Climbing FlightAware ADS-B
04:25PM 30.7399 -94.7312 34° Northeast 466 536 20,800 2,160 Climbing FlightAware ADS-B
04:25PM 30.7440 -94.7280 34° Northeast 463 533 20,900 2,160 Climbing FlightAware ADS-B
04:26PM 30.7943 -94.6890 34° Northeast 471 542 21,900 2,220 Climbing FlightAware ADS-B
04:26PM 30.8080 -94.6790 32° Northeast 450 518 22,200 2,040 Climbing FlightAware ADS-B
04:26PM 30.8527 -94.6438 34° Northeast 480 552 23,000 2,100 Climbing FlightAware ADS-B
04:26PM 30.8760 -94.6260 33° Northeast 516 594 23,500 2,040 Climbing FlightAware ADS-B
04:27PM 30.9116 -94.5980 34° Northeast 489 563 24,100 1,860 Climbing FlightAware ADS-B
04:27PM 30.9360 -94.5790 34° Northeast 347 399 24,600 1,920 Climbing FlightAware ADS-B
04:27PM 30.9699 -94.5527 34° Northeast 495 570 25,100 1,740 Climbing FlightAware ADS-B
04:28PM 31.0000 -94.5290 34° Northeast 598 688 25,500 1,680 Climbing FlightAware ADS-B
04:28PM 31.0590 -94.4830 34° Northeast 527 606 26,400 1,680 Climbing FlightAware ADS-B
04:29PM 31.1133 -94.4409 34° Northeast 502 578 27,100 1,560 Climbing FlightAware ADS-B
04:29PM 31.1390 -94.4210 34° Northeast 547 629 27,500 2,040 Climbing FlightAware ADS-B
04:29PM 31.2020 -94.3710 34° Northeast 459 528 28,700 2,280 Climbing FlightAware ADS-B
04:30PM 31.2600 -94.3260 34° Northeast 432 497 29,900 2,040 Climbing FlightAware ADS-B
04:31PM 31.3880 -94.2260 34° Northeast 32,000 1,920 Climbing FlightAware ADS-B
04:31PM 31.4470 -94.1790 34° Northeast 566 651 33,000 1,740 Climbing FlightAware ADS-B
04:32PM 31.5270 -94.1170 33° Northeast 606 697 34,100 1,800 Climbing FlightAware ADS-B
04:33PM 31.6440 -94.0240 34° Northeast 505 581 36,100 600 Climbing FlightAware ADS-B
04:36PM 31.9960 -93.7460 34° Northeast 39,000 360 Climbing FlightAware ADS-B
04:40PM 32.4394 -93.3919 34° Northeast 497 572 39,000  Level FlightAware ADS-B
04:40PM 32.4967 -93.3567 34° Northeast 497 572 39,000  Level Fort Worth Center
04:41PM 32.6086 -93.2678 34° Northeast 497 572 39,000  Level Fort Worth Center
04:42PM 32.7183 -93.1789 34° Northeast 487 560 39,000  Level Fort Worth Center
04:43PM 32.8281 -93.0922 34° Northeast 477 549 39,000  Level Fort Worth Center
04:44PM 32.9275 -93.0106 35° Northeast 477 549 39,000  Level Fort Worth Center
04:45PM 33.0350 -92.9236 34° Northeast 477 549 39,000  Level Fort Worth Center
04:46PM 33.1425 -92.8364 34° Northeast 477 549 39,000  Level Fort Worth Center
04:48PM 33.3103 -92.6664 40° Northeast 480 552 39,000  Level Memphis Center
04:49PM 33.3939 -92.5394 52° Northeast 475 547 39,000  Level Memphis Center
04:50PM 33.4775 -92.4119 52° Northeast 480 552 39,000  Level Memphis Center
04:51PM 33.5611 -92.2842 52° Northeast 485 558 39,000  Level Memphis Center
04:52PM 33.6444 -92.1539 52° Northeast 485 558 39,000  Level Memphis Center
04:53PM 33.7297 -92.0281 51° Northeast 485 558 39,000  Level Memphis Center
04:54PM 33.8147 -91.8972 52° Northeast 485 558 39,000  Level Memphis Center
04:55PM 33.8956 -91.7686 53° Northeast 485 558 39,000  Level Memphis Center
04:56PM 33.9658 -91.6519 54° Northeast 480 552 39,000  Level Memphis Center
04:57PM 34.0525 -91.5256 50° Northeast 480 552 39,000  Level Memphis Center
04:58PM 34.1308 -91.3936 54° Northeast 485 558 39,000  Level Memphis Center
04:59PM 34.2153 -91.2664 51° Northeast 478 550 39,000  Level Memphis Center
05:00PM 34.2956 -91.1392 53° Northeast 478 550 39,000  Level Memphis Center
05:01PM 34.3839 -90.9964 53° Northeast 487 560 39,000  Level Memphis Center
05:02PM 34.4700 -90.8661 51° Northeast 482 555 39,000  Level Memphis Center
05:03PM 34.5500 -90.7328 54° Northeast 482 555 39,000  Level Memphis Center
05:04PM 34.6317 -90.6019 53° Northeast 488 562 39,000  Level Memphis Center
05:05PM 34.7153 -90.4658 53° Northeast 483 556 39,000  Level Memphis Center
05:06PM 34.7967 -90.3369 52° Northeast 483 556 39,000  Level Memphis Center
05:07PM 34.8778 -90.2078 53° Northeast 483 556 39,000  Level Memphis Center
05:08PM 34.9611 -90.0808 51° Northeast 483 556 39,000  Level Memphis Center
05:09PM 35.0275 -89.9642 55° Northeast 483 556 39,000  Level Memphis Center
05:10PM 35.0833 -89.8142 66° East 473 544 39,000  Level Memphis Center
05:11PM 35.1367 -89.6536 68° East 468 539 39,000  Level Memphis Center
05:12PM 35.1858 -89.5111 67° East 458 527 39,000  Level Memphis Center
05:13PM 35.2350 -89.3708 67° East 453 521 39,000  Level Memphis Center
05:14PM 35.2858 -89.2278 66° East 448 516 39,000  Level Memphis Center
05:15PM 35.3344 -89.0844 67° East 448 516 39,000  Level Memphis Center
05:16PM 35.3850 -88.9411 67° East 453 521 39,000  Level Memphis Center
05:17PM 35.4317 -88.8128 66° East 453 521 39,000  Level Memphis Center
05:18PM 35.4756 -88.6719 69° East 453 521 39,000  Level Memphis Center
05:19PM 35.5258 -88.5281 67° East 458 527 39,000  Level Memphis Center
05:20PM 35.5756 -88.3789 68° East 458 527 39,000  Level Memphis Center
05:26PM 35.8820 -87.4520 68° East 474 545 39,000  Level FlightAware
05:27PM 35.9207 -87.3310 68° East 473 544 39,000  Level FlightAware ADS-B
05:28PM 35.9495 -87.2411 68° East 474 545 39,000  Level FlightAware ADS-B
05:28PM 35.9756 -87.1599 68° East 474 545 39,000  Level FlightAware ADS-B
05:29PM 36.0008 -87.0807 69° East 471 542 39,000  Level FlightAware ADS-B
05:29PM 36.0259 -87.0018 69° East 470 541 39,000  Level FlightAware ADS-B
05:30PM 36.0496 -86.9271 69° East 468 539 39,000  Level FlightAware ADS-B
05:30PM 36.0736 -86.8510 69° East 467 537 39,000  Level FlightAware ADS-B
05:31PM 36.1060 -86.7490 69° East 466 536 39,000  Level FlightAware
05:31PM 36.1387 -86.6445 69° East 467 537 39,000  Level FlightAware ADS-B
05:32PM 36.1646 -86.5623 69° East 468 539 39,000  Level FlightAware ADS-B
05:33PM 36.1883 -86.4878 68° East 466 536 39,000  Level FlightAware ADS-B
05:33PM 36.2125 -86.4111 69° East 466 536 39,000  Level FlightAware ADS-B
05:34PM 36.2362 -86.3361 69° East 465 535 39,000  Level FlightAware ADS-B
05:34PM 36.2650 -86.2450 69° East 465 535 39,000  Level FlightAware
05:35PM 36.3041 -86.1184 69° East 465 535 39,000  Level FlightAware ADS-B
05:36PM 36.3282 -86.0414 69° East 466 536 39,000  Level FlightAware ADS-B
05:36PM 36.3577 -85.9466 69° East 468 539 39,000  Level FlightAware ADS-B
05:37PM 36.3822 -85.8674 69° East 469 540 39,000  Level FlightAware ADS-B
05:37PM 36.4126 -85.7691 69° East 470 541 39,000  Level FlightAware ADS-B
05:38PM 36.4439 -85.6675 69° East 470 541 39,000  Level FlightAware ADS-B
05:39PM 36.4674 -85.5911 69° East 470 541 39,000  Level FlightAware ADS-B
05:39PM 36.4906 -85.5157 69° East 468 539 39,000  Level FlightAware ADS-B
05:40PM 36.5141 -85.4388 69° East 469 540 39,000  Level FlightAware ADS-B
05:40PM 36.5378 -85.3612 69° East 470 541 39,000  Level FlightAware ADS-B
05:41PM 36.5613 -85.2845 69° East 471 542 39,000  Level FlightAware ADS-B
05:41PM 36.5882 -85.1954 69° East 471 542 39,000  Level FlightAware ADS-B
05:42PM 36.6172 -85.1001 69° East 471 542 39,000  Level FlightAware ADS-B
05:42PM 36.6404 -85.0237 69° East 470 541 39,000  Level FlightAware ADS-B
05:43PM 36.6639 -84.9458 69° East 471 542 39,000  Level FlightAware ADS-B
05:43PM 36.6881 -84.8656 69° East 471 542 39,000  Level FlightAware ADS-B
05:44PM 36.7230 -84.7490 69° East 470 541 39,000  Level FlightAware
05:45PM 36.7422 -84.6861 69° East 471 542 39,000  Level FlightAware ADS-B
05:45PM 36.7651 -84.6093 70° East 471 542 39,000  Level FlightAware ADS-B
05:46PM 36.7882 -84.5321 69° East 472 543 39,000  Level FlightAware ADS-B
05:46PM 36.8109 -84.4561 70° East 474 545 39,000  Level FlightAware ADS-B
05:47PM 36.8344 -84.3774 70° East 472 543 39,000  Level FlightAware ADS-B
05:47PM 36.8595 -84.2930 70° East 471 542 39,000  Level FlightAware ADS-B
05:48PM 36.8828 -84.2145 70° East 470 541 39,000  Level FlightAware ADS-B
05:48PM 36.9056 -84.1378 70° East 470 541 39,000  Level FlightAware ADS-B
05:49PM 36.9285 -84.0605 70° East 469 540 39,000  Level FlightAware ADS-B
05:49PM 36.9508 -83.9848 70° East 469 540 39,000  Level FlightAware ADS-B
05:50PM 36.9939 -83.8382 70° East 469 540 39,000  Level FlightAware ADS-B
05:51PM 37.0179 -83.7564 70° East 466 536 39,000  Level FlightAware ADS-B
05:52PM 37.0880 -83.5167 70° East 465 535 39,000  Level FlightAware ADS-B
05:53PM 37.1154 -83.4225 70° East 461 531 39,000  Level FlightAware ADS-B
05:54PM 37.1500 -83.3030 70° East 460 529 39,000  Level FlightAware
05:54PM 37.1810 -83.1980 70° East 460 529 39,000  Level FlightAware
05:55PM 37.2050 -83.1130 70° East 460 529 39,000  Level FlightAware
05:56PM 37.2300 -83.0280 70° East 460 529 39,000  Level FlightAware
05:56PM 37.2550 -82.9420 70° East 460 529 39,000  Level FlightAware
05:57PM 37.2800 -82.8570 70° East 460 529 39,000  Level FlightAware
05:58PM 37.3100 -82.7500 71° East 460 529 39,000  Level FlightAware
05:59PM 37.3350 -82.6640 70° East 460 529 39,000  Level FlightAware
05:59PM 37.3600 -82.5790 70° East 460 529 39,000  Level FlightAware
06:00PM 37.3850 -82.4930 70° East 460 529 39,000  Level FlightAware
06:01PM 37.4090 -82.4080 70° East 460 529 39,000  Level FlightAware
06:01PM 37.4263 -82.0643 86° East 39,000  Level FlightAware ADS-B
06:02PM 37.4440 -81.9550 78° East 491 565 39,000  Level FlightAware
06:03PM 37.4630 -81.8420 78° East 492 566 39,000  Level FlightAware
06:04PM 37.4840 -81.7130 78° East 491 565 39,000  Level FlightAware
06:04PM 37.5020 -81.6060 78° East 490 564 39,000  Level FlightAware
06:05PM 37.5210 -81.4890 78° East 487 560 39,000  Level FlightAware
06:06PM 37.5400 -81.3690 79° East 487 560 39,000  Level FlightAware
06:06PM 37.5590 -81.2560 78° East 485 558 39,000  Level FlightAware
06:07PM 37.5790 -81.1310 79° East 484 557 39,000  Level FlightAware
06:08PM 37.5960 -81.0240 79° East 484 557 39,000  Level FlightAware
06:09PM 37.6170 -80.8930 79° East 484 557 39,000  Level FlightAware
06:09PM 37.6420 -80.7390 78° East 484 557 39,000  Level FlightAware
06:10PM 37.6610 -80.6220 78° East 484 557 39,000  Level FlightAware
06:11PM 37.6810 -80.4820 80° East 485 558 39,000  Level FlightAware
06:12PM 37.6970 -80.3770 79° East 484 557 39,000  Level FlightAware
06:12PM 37.7150 -80.2610 79° East 484 557 39,000  Level FlightAware
06:13PM 37.7320 -80.1480 79° East 484 557 39,000  Level FlightAware
06:14PM 37.7490 -80.0400 79° East 484 557 39,000  Level FlightAware
06:15PM 37.7720 -79.8830 79° East 483 556 39,000  Level FlightAware
06:15PM 37.7900 -79.7620 79° East 482 555 39,000  Level FlightAware
06:16PM 37.8070 -79.6540 79° East 482 555 39,000  Level FlightAware
06:17PM 37.8260 -79.5140 80° East 481 554 39,000  Level FlightAware
06:18PM 37.8440 -79.3940 79° East 482 555 39,000  Level FlightAware
06:18PM 37.8600 -79.2780 80° East 482 555 39,000  Level FlightAware
06:19PM 37.8760 -79.1680 80° East 483 556 39,000  Level FlightAware
06:20PM 37.8940 -79.0380 80° East 484 557 39,000  Level FlightAware
06:20PM 37.9100 -78.9270 80° East 486 559 39,000  Level FlightAware
06:21PM 37.9270 -78.8050 80° East 487 560 39,000  Level FlightAware
06:22PM 37.9420 -78.6900 81° East 490 564 39,000  Level FlightAware
06:22PM 37.9600 -78.5610 80° East 492 566 39,000  Level FlightAware
06:23PM 37.9750 -78.4480 80° East 493 567 39,000  Level FlightAware
06:24PM 37.9910 -78.3340 80° East 496 571 39,000  Level FlightAware
06:25PM 38.0070 -78.2100 81° East 496 571 39,000  Level FlightAware
06:25PM 38.0220 -78.0960 80° East 487 560 39,000  Level FlightAware
06:26PM 38.0380 -77.9660 81° East 468 539 39,000  Level FlightAware
06:27PM 38.0520 -77.8580 81° East 461 531 39,000  Level FlightAware
06:27PM 38.0658 -77.7523 81° East 461 531 39,000  Level FlightAware ADS-B
06:28PM 38.0769 -77.6678 81° East 463 533 39,000  Level FlightAware ADS-B
06:28PM 38.0877 -77.5866 80° East 468 539 39,000  Level FlightAware ADS-B
06:29PM 38.0990 -77.5050 80° East 468 539 39,000  Level FlightAware ADS-B
06:29PM 38.1130 -77.4060 80° East 472 543 39,000  Level FlightAware
06:30PM 38.1160 -77.3827 81° East 473 544 39,000  Level FlightAware ADS-B
06:30PM 38.1280 -77.2970 80° East 475 547 39,000  Level FlightAware
06:30PM 38.1339 -77.2557 80° East 475 547 39,000  Level FlightAware ADS-B
06:31PM 38.1454 -77.1956 76° East 464 534 39,000  Level FlightAware ADS-B
06:31PM 38.1613 -77.1489 67° East 452 520 39,000  Level FlightAware ADS-B
06:31PM 38.1795 -77.1127 57° Northeast 437 503 39,000 -780 Level FlightAware ADS-B
06:32PM 38.2211 -77.0585 46° Northeast 421 484 38,400 -1,440 Descending FlightAware ADS-B
06:32PM 38.2608 -77.0265 32° Northeast 402 463 37,700 -1,680 Descending FlightAware ADS-B
06:33PM 38.3112 -76.9937 27° Northeast 400 460 36,900 -1,620 Descending FlightAware ADS-B
06:33PM 38.3658 -76.9588 27° Northeast 396 456 36,000 -1,620 Descending FlightAware ADS-B
06:34PM 38.4204 -76.9234 27° Northeast 392 451 35,100 -1,200 Descending FlightAware ADS-B
06:34PM 38.4710 -76.8904 27° Northeast 387 445 34,700 -900 Descending FlightAware ADS-B
06:35PM 38.5211 -76.8582 27° Northeast 392 451 34,200 -660 Descending FlightAware ADS-B
06:36PM 38.5932 -76.8109 27° Northeast 390 449 33,900 -420 Descending FlightAware ADS-B
06:36PM 38.6422 -76.7791 27° Northeast 386 444 33,700 -540 Descending FlightAware ADS-B
06:37PM 38.6899 -76.7474 27° Northeast 380 437 33,400 -540 Descending FlightAware ADS-B
06:37PM 38.7138 -76.7277 33° Northeast 386 444 33,300 -660 Descending FlightAware ADS-B
06:37PM 38.7606 -76.6775 40° Northeast 390 449 32,900 -1,020 Descending FlightAware ADS-B
06:38PM 38.8015 -76.6298 42° Northeast 383 441 32,200 -1,560 Descending FlightAware ADS-B
06:39PM 38.8417 -76.5828 42° Northeast 376 433 31,300 -1,800 Descending FlightAware ADS-B
06:39PM 38.8827 -76.5354 42° Northeast 369 425 30,400 -1,680 Descending FlightAware ADS-B
06:40PM 38.9204 -76.4918 42° Northeast 363 418 29,600 -1,680 Descending FlightAware ADS-B
06:40PM 38.9596 -76.4468 42° Northeast 369 425 28,700 -1,800 Descending FlightAware ADS-B
06:41PM 38.9987 -76.4017 42° Northeast 377 434 27,800 -1,620 Descending FlightAware ADS-B
06:41PM 39.0387 -76.3549 42° Northeast 373 429 27,100 -840 Descending FlightAware ADS-B
06:42PM 39.0761 -76.3112 42° Northeast 359 413 27,000 -120 Descending FlightAware ADS-B
06:42PM 39.1154 -76.2654 42° Northeast 355 409 27,000  Level FlightAware ADS-B
06:43PM 39.1520 -76.2230 42° Northeast 355 409 27,000  Level FlightAware ADS-B
06:43PM 39.1887 -76.1799 42° Northeast 357 411 27,000  Level FlightAware ADS-B
06:44PM 39.2274 -76.1346 42° Northeast 357 411 27,000  Level FlightAware ADS-B
06:44PM 39.2653 -76.0901 42° Northeast 359 413 27,000 -540 Level FlightAware ADS-B
06:45PM 39.3031 -76.0457 42° Northeast 359 413 26,500 -900 Descending FlightAware ADS-B
06:45PM 39.3395 -76.0024 43° Northeast 348 400 26,100 -900 Descending FlightAware ADS-B
06:46PM 39.3764 -75.9592 42° Northeast 345 397 25,600 -1,020 Descending FlightAware ADS-B
06:46PM 39.4124 -75.9169 42° Northeast 351 404 25,100 -960 Descending FlightAware ADS-B
06:47PM 39.4538 -75.8680 42° Northeast 363 418 24,600 -960 Descending FlightAware ADS-B
06:47PM 39.4916 -75.8232 42° Northeast 365 420 24,100 -1,020 Descending FlightAware ADS-B
06:48PM 39.5288 -75.7787 43° Northeast 359 413 23,600 -1,020 Descending FlightAware ADS-B
06:48PM 39.5654 -75.7353 42° Northeast 352 405 23,100 -1,020 Descending FlightAware ADS-B
06:49PM 39.6023 -75.6915 42° Northeast 350 403 22,600 -900 Descending FlightAware ADS-B
06:49PM 39.6389 -75.6481 42° Northeast 348 400 22,200 -900 Descending FlightAware ADS-B
06:50PM 39.6751 -75.6049 43° Northeast 344 396 21,700 -1,380 Descending FlightAware ADS-B
06:50PM 39.7123 -75.5601 43° Northeast 342 394 20,800 -1,680 Descending FlightAware ADS-B
06:51PM 39.7466 -75.5183 43° Northeast 335 386 20,000 -1,620 Descending FlightAware ADS-B
06:51PM 39.7813 -75.4764 43° Northeast 330 380 19,200 -1,620 Descending FlightAware ADS-B
06:52PM 39.8253 -75.4238 43° Northeast 337 388 18,200 -1,680 Descending FlightAware ADS-B
06:53PM 39.8608 -75.3808 43° Northeast 341 392 17,300 -1,740 Descending FlightAware ADS-B
06:53PM 39.8987 -75.3345 43° Northeast 332 382 16,400 -1,620 Descending FlightAware ADS-B
06:54PM 39.9319 -75.2943 43° Northeast 323 372 15,600 -1,620 Descending FlightAware ADS-B
06:54PM 39.9648 -75.2543 43° Northeast 314 361 14,800 -1,740 Descending FlightAware ADS-B
06:55PM 39.9968 -75.2155 43° Northeast 311 358 13,900 -1,800 Descending FlightAware ADS-B
06:55PM 40.0292 -75.1760 43° Northeast 308 354 13,000 -1,800 Descending FlightAware ADS-B
06:56PM 40.0608 -75.1376 43° Northeast 306 352 12,100 -1,800 Descending FlightAware ADS-B
06:56PM 40.0919 -75.0997 43° Northeast 305 351 11,200 -1,260 Descending FlightAware ADS-B
06:57PM 40.1238 -75.0603 43° Northeast 283 326 10,800 -900 Descending FlightAware ADS-B
06:57PM 40.1535 -75.0241 43° Northeast 272 313 10,300 -1,020 Descending FlightAware ADS-B
06:57PM 40.1686 -75.0057 43° Northeast 267 307 10,000 -1,140 Descending FlightAware ADS-B
06:58PM 40.1828 -74.9884 43° Northeast 265 305 9,700 -1,200 Descending FlightAware ADS-B
06:58PM 40.1966 -74.9718 43° Northeast 266 306 9,400 -1,740 Descending FlightAware ADS-B
06:58PM 40.2117 -74.9532 43° Northeast 272 313 8,800 -1,980 Descending FlightAware ADS-B
06:59PM 40.2273 -74.9338 44° Northeast 275 316 8,300 -1,680 Descending FlightAware ADS-B
06:59PM 40.2345 -74.9247 44° Northeast 275 316 8,100 -1,020 Descending FlightAware ADS-B
06:59PM 40.2486 -74.9063 45° Northeast 271 312 7,900 -420 Descending FlightAware ADS-B
06:59PM 40.2616 -74.8883 47° Northeast 272 313 7,900  Level FlightAware ADS-B
06:59PM 40.2766 -74.8677 46° Northeast 272 313 7,900  Level FlightAware ADS-B
07:00PM 40.2892 -74.8497 47° Northeast 270 311 7,900  Level FlightAware ADS-B
07:00PM 40.3028 -74.8306 47° Northeast 269 310 7,900 -240 Level FlightAware ADS-B
07:00PM 40.3159 -74.8123 47° Northeast 269 310 7,800 -600 Descending FlightAware ADS-B
07:01PM 40.3286 -74.7944 47° Northeast 269 310 7,600 -1,020 Descending FlightAware ADS-B
07:01PM 40.3421 -74.7754 47° Northeast 267 307 7,300 -960 Descending FlightAware ADS-B
07:01PM 40.3564 -74.7553 47° Northeast 270 311 7,100 -1,020 Descending FlightAware ADS-B
07:01PM 40.3689 -74.7376 47° Northeast 272 313 6,800 -1,020 Descending FlightAware ADS-B
07:02PM 40.3827 -74.7184 47° Northeast 273 314 6,600 -1,020 Descending FlightAware ADS-B
07:02PM 40.3955 -74.7004 47° Northeast 272 313 6,300 -1,140 Descending FlightAware ADS-B
07:02PM 40.4013 -74.6926 46° Northeast 271 312 6,200 -900 Descending FlightAware ADS-B
07:02PM 40.4093 -74.6851 36° Northeast 270 311 6,100 -960 Descending FlightAware ADS-B
07:02PM 40.4154 -74.6803 31° Northeast 269 310 6,000 -1,140 Descending FlightAware ADS-B
07:02PM 40.4208 -74.6774 22° Northeast 270 311 5,900 -600 Descending FlightAware ADS-B
07:02PM 40.4271 -74.6746 19° North 267 307 5,900  Level FlightAware ADS-B
07:03PM 40.4486 -74.6679 13° North 264 304 5,900  Level FlightAware ADS-B
07:03PM 40.4753 -74.6612 11° North 260 299 5,900  Level FlightAware ADS-B
07:03PM 40.4935 -74.6567 11° North 262 302 5,900  Level FlightAware ADS-B
07:04PM 40.5520 -74.6420 11° North 257 296 5,900 -240 Level FlightAware
07:05PM 40.5818 -74.6345 11° North 254 292 5,600 -660 Descending FlightAware ADS-B
07:05PM 40.6117 -74.6266 11° North 258 297 5,400 -540 Descending FlightAware ADS-B
07:05PM 40.6388 -74.6196 11° North 262 302 5,200 -420 Descending FlightAware ADS-B
07:06PM 40.7030 -74.6030 11° North 261 300 4,900 -240 Descending FlightAware
07:07PM 40.7325 -74.5955 11° North 261 300 4,900  Level FlightAware ADS-B
07:07PM 40.7520 -74.5904 11° North 263 303 4,900  Level FlightAware ADS-B
07:07PM 40.7790 -74.5834 11° North 260 299 4,900  Level FlightAware ADS-B
07:08PM 40.8224 -74.5721 11° North 265 305 4,900  Level FlightAware ADS-B
07:08PM 40.8458 -74.5648 13° North 250 288 4,900  Level FlightAware ADS-B
07:09PM 40.8780 -74.5540 14° North 224 258 4,900  Level FlightAware
07:09PM 40.9040 -74.5460 13° North 215 247 4,900  Level FlightAware
07:10PM 40.9340 -74.5360 14° North 216 249 4,900  Level FlightAware
07:13PM 41.0520 -74.3950 42° Northeast 236 272 4,900  Level FlightAware
07:13PM 41.0500 -74.3710 96° East 238 274 4,900 -360 Level FlightAware
07:15PM 41.0040 -74.1990 109° East 229 264 4,000 -360 Descending FlightAware
07:16PM 40.9900 -74.1730 125° Southeast 229 264 4,000 -300 Level FlightAware
07:16PM 40.9770 -74.1500 127° Southeast 218 251 3,800 -300 Descending FlightAware
07:16PM 40.9630 -74.1240 125° Southeast 218 251 3,800 -840 Level FlightAware
07:17PM 40.9430 -74.1120 156° South 197 227 3,200 -1,380 Descending FlightAware
07:17PM 40.9265 -74.0964 144° Southeast 196 226 2,900 -540 Descending FlightAware ADS-B
07:17PM 40.9138 -74.0846 145° Southeast 199 229 2,900  Level FlightAware ADS-B
07:18PM 40.8926 -74.0726 157° South 197 227 2,900  Level FlightAware ADS-B
07:18PM 40.8792 -74.0709 175° South 190 219 2,900  Level FlightAware ADS-B
07:18PM 40.8664 -74.0692 174° South 191 220 2,900  Level FlightAware ADS-B
07:18PM 40.8587 -74.0697 183° South 189 217 2,900  Level FlightAware ADS-B
07:19PM 40.8554 -74.0706 192° South 187 215 2,900  Level FlightAware ADS-B
07:19PM 40.8355 -74.0814 202° Southwest 183 211 2,900  Level FlightAware ADS-B
07:19PM 40.8192 -74.0918 206° Southwest 181 208 2,900 -360 Level FlightAware ADS-B
07:20PM 40.8084 -74.0989 206° Southwest 180 207 2,700 -960 Descending FlightAware ADS-B
07:20PM 40.7811 -74.1162 206° Southwest 178 205 2,100 -1,020 Descending FlightAware ADS-B
07:20PM 40.7725 -74.1217 206° Southwest 175 201 1,900 -900 Descending FlightAware ADS-B
07:21PM 40.7613 -74.1287 205° Southwest 174 200 1,700 -900 Descending FlightAware ADS-B
07:21PM 40.7538 -74.1336 206° Southwest 155 178 1,500 -840 Descending FlightAware ADS-B
07:21PM 40.7423 -74.1407 205° Southwest 153 176 1,300 -780 Descending FlightAware ADS-B
07:21PM 40.7349 -74.1454 206° Southwest 149 171 1,100 -900 Descending FlightAware ADS-B
07:22PM 40.7254 -74.1512 205° Southwest 143 165 900 -420 Descending FlightAware ADS-B
07:22PM 40.7030 -74.1650 205° Southwest 131 151 700 -300 Descending FlightAware